sensor_id;sensor_type;location;lat;lon;timestamp;pressure;altitude;pressure_sealevel;temperature;humidity
33554;BME280;19885;42.208;24.952;2022-11-15T00:02:15;100663.94;;;8.99;86.80
33554;BME280;19885;42.208;24.952;2022-11-15T00:04:41;100599.72;;;8.63;86.64
33554;BME280;19885;42.208;24.952;2022-11-15T00:07:09;100651.88;;;9.03;86.44
33554;BME280;19885;42.208;24.952;2022-11-15T00:09:34;100655.41;;;9.05;86.10
33554;BME280;19885;42.208;24.952;2022-11-15T00:12:00;100647.56;;;9.03;86.39
33554;BME280;19885;42.208;24.952;2022-11-15T00:14:25;100645.09;;;9.08;86.37
33554;BME280;19885;42.208;24.952;2022-11-15T00:16:50;100619.28;;;8.81;86.83
33554;BME280;19885;42.208;24.952;2022-11-15T00:19:16;100638.06;;;8.71;87.09
33554;BME280;19885;42.208;24.952;2022-11-15T00:21:47;100640.63;;;8.70;87.68
33554;BME280;19885;42.208;24.952;2022-11-15T00:24:15;100639.25;;;8.51;88.55
33554;BME280;19885;42.208;24.952;2022-11-15T00:26:40;100636.63;;;8.49;89.46
33554;BME280;19885;42.208;24.952;2022-11-15T00:29:06;100639.03;;;8.43;90.01
33554;BME280;19885;42.208;24.952;2022-11-15T00:31:36;100630.91;;;8.31;90.40
33554;BME280;19885;42.208;24.952;2022-11-15T00:34:04;100591.22;;;8.07;90.95
33554;BME280;19885;42.208;24.952;2022-11-15T00:36:34;100624.09;;;8.36;90.90
33554;BME280;19885;42.208;24.952;2022-11-15T00:39:03;100635.78;;;8.52;90.33
33554;BME280;19885;42.208;24.952;2022-11-15T00:41:28;100634.44;;;8.66;89.82
33554;BME280;19885;42.208;24.952;2022-11-15T00:43:54;100584.50;;;8.43;89.41
33554;BME280;19885;42.208;24.952;2022-11-15T00:46:19;100592.38;;;8.46;89.89
33554;BME280;19885;42.208;24.952;2022-11-15T00:48:45;100625.56;;;8.91;88.80
33554;BME280;19885;42.208;24.952;2022-11-15T00:51:10;100622.94;;;8.89;88.92
33554;BME280;19885;42.208;24.952;2022-11-15T00:53:35;100613.78;;;9.03;88.18
33554;BME280;19885;42.208;24.952;2022-11-15T00:56:01;100612.56;;;8.91;88.74
33554;BME280;19885;42.208;24.952;2022-11-15T00:58:26;100614.78;;;9.08;87.93
33554;BME280;19885;42.208;24.952;2022-11-15T01:00:52;100622.50;;;9.07;88.25
33554;BME280;19885;42.208;24.952;2022-11-15T01:03:20;100598.44;;;8.80;88.89
33554;BME280;19885;42.208;24.952;2022-11-15T01:05:45;100566.53;;;8.52;89.24
33554;BME280;19885;42.208;24.952;2022-11-15T01:08:16;100620.00;;;8.76;90.03
33554;BME280;19885;42.208;24.952;2022-11-15T01:10:45;100615.50;;;8.70;90.72
33554;BME280;19885;42.208;24.952;2022-11-15T01:13:10;100612.19;;;8.76;90.64
33554;BME280;19885;42.208;24.952;2022-11-15T01:15:39;100606.59;;;8.60;91.30
33554;BME280;19885;42.208;24.952;2022-11-15T01:18:05;100589.91;;;8.51;91.51
33554;BME280;19885;42.208;24.952;2022-11-15T01:20:30;100612.03;;;8.70;91.48
33554;BME280;19885;42.208;24.952;2022-11-15T01:22:56;100605.97;;;8.69;91.46
33554;BME280;19885;42.208;24.952;2022-11-15T01:25:24;100612.16;;;8.74;91.09
33554;BME280;19885;42.208;24.952;2022-11-15T01:27:49;100605.44;;;8.82;90.85
33554;BME280;19885;42.208;24.952;2022-11-15T01:30:17;100594.53;;;8.63;91.78
33554;BME280;19885;42.208;24.952;2022-11-15T01:32:42;100604.84;;;8.59;92.26
33554;BME280;19885;42.208;24.952;2022-11-15T01:35:08;100609.13;;;8.57;91.82
33554;BME280;19885;42.208;24.952;2022-11-15T01:37:33;100605.44;;;8.82;91.56
33554;BME280;19885;42.208;24.952;2022-11-15T01:39:59;100604.19;;;9.01;90.24
33554;BME280;19885;42.208;24.952;2022-11-15T01:42:24;100586.13;;;9.07;90.25
33554;BME280;19885;42.208;24.952;2022-11-15T01:44:50;100596.16;;;9.27;89.55
33554;BME280;19885;42.208;24.952;2022-11-15T01:47:20;100603.38;;;9.41;88.63
33554;BME280;19885;42.208;24.952;2022-11-15T01:49:59;100605.28;;;9.48;88.13
33554;BME280;19885;42.208;24.952;2022-11-15T01:52:27;100597.47;;;9.46;87.08
33554;BME280;19885;42.208;24.952;2022-11-15T01:55:25;100601.56;;;9.37;87.58
33554;BME280;19885;42.208;24.952;2022-11-15T01:57:57;100591.00;;;9.29;88.25
33554;BME280;19885;42.208;24.952;2022-11-15T02:00:29;100592.78;;;9.31;88.41
33554;BME280;19885;42.208;24.952;2022-11-15T02:02:58;100595.59;;;9.05;89.21
33554;BME280;19885;42.208;24.952;2022-11-15T02:05:26;100593.53;;;9.26;88.90
33554;BME280;19885;42.208;24.952;2022-11-15T02:07:53;100590.16;;;9.30;88.76
33554;BME280;19885;42.208;24.952;2022-11-15T02:10:21;100594.69;;;9.39;87.95
33554;BME280;19885;42.208;24.952;2022-11-15T02:12:48;100591.63;;;9.56;87.24
33554;BME280;19885;42.208;24.952;2022-11-15T02:15:14;100598.78;;;9.66;87.06
33554;BME280;19885;42.208;24.952;2022-11-15T02:17:56;100590.97;;;9.66;86.53
33554;BME280;19885;42.208;24.952;2022-11-15T02:20:44;100595.25;;;9.63;87.06
33554;BME280;19885;42.208;24.952;2022-11-15T02:31:29;100584.28;;;9.03;90.20
33554;BME280;19885;42.208;24.952;2022-11-15T02:37:21;100594.16;;;9.53;88.69
33554;BME280;19885;42.208;24.952;2022-11-15T02:40:27;100587.34;;;9.58;87.75
33554;BME280;19885;42.208;24.952;2022-11-15T02:43:09;100583.06;;;9.60;88.18
33554;BME280;19885;42.208;24.952;2022-11-15T02:46:09;100533.94;;;9.37;87.70
33554;BME280;19885;42.208;24.952;2022-11-15T02:48:39;100571.94;;;9.67;87.70
33554;BME280;19885;42.208;24.952;2022-11-15T02:51:06;100577.34;;;9.78;87.35
33554;BME280;19885;42.208;24.952;2022-11-15T02:53:32;100570.44;;;9.78;86.88
33554;BME280;19885;42.208;24.952;2022-11-15T02:55:57;100580.16;;;9.87;87.68
33554;BME280;19885;42.208;24.952;2022-11-15T03:04:02;100578.44;;;9.87;86.96
33554;BME280;19885;42.208;24.952;2022-11-15T03:09:42;100577.72;;;9.94;86.93
33554;BME280;19885;42.208;24.952;2022-11-15T03:12:06;100563.75;;;9.91;86.94
33554;BME280;19885;42.208;24.952;2022-11-15T03:14:37;100574.31;;;9.98;86.50
33554;BME280;19885;42.208;24.952;2022-11-15T03:17:32;100563.84;;;9.95;86.33
33554;BME280;19885;42.208;24.952;2022-11-15T03:20:01;100581.22;;;9.96;86.90
33554;BME280;19885;42.208;24.952;2022-11-15T03:22:36;100569.03;;;9.94;86.70
33554;BME280;19885;42.208;24.952;2022-11-15T03:25:06;100573.41;;;9.96;86.42
33554;BME280;19885;42.208;24.952;2022-11-15T03:27:41;100567.34;;;9.97;86.21
33554;BME280;19885;42.208;24.952;2022-11-15T03:30:09;100561.84;;;9.82;86.85
33554;BME280;19885;42.208;24.952;2022-11-15T03:32:56;100560.06;;;9.81;86.55
33554;BME280;19885;42.208;24.952;2022-11-15T03:35:28;100554.91;;;9.83;86.49
33554;BME280;19885;42.208;24.952;2022-11-15T03:40:42;100542.53;;;9.71;86.45
33554;BME280;19885;42.208;24.952;2022-11-15T03:46:24;100554.84;;;9.81;86.58
33554;BME280;19885;42.208;24.952;2022-11-15T03:49:00;100550.53;;;9.82;85.99
33554;BME280;19885;42.208;24.952;2022-11-15T03:51:29;100554.75;;;9.75;86.44
33554;BME280;19885;42.208;24.952;2022-11-15T03:53:54;100547.66;;;9.68;86.51
33554;BME280;19885;42.208;24.952;2022-11-15T03:56:20;100535.63;;;9.73;86.46
33554;BME280;19885;42.208;24.952;2022-11-15T03:58:45;100549.72;;;9.84;86.41
33554;BME280;19885;42.208;24.952;2022-11-15T04:01:11;100541.09;;;9.85;86.06
33554;BME280;19885;42.208;24.952;2022-11-15T04:03:36;100510.31;;;9.68;86.21
33554;BME280;19885;42.208;24.952;2022-11-15T04:06:02;100484.81;;;9.49;86.64
33554;BME280;19885;42.208;24.952;2022-11-15T04:08:28;100540.94;;;9.79;86.95
33554;BME280;19885;42.208;24.952;2022-11-15T04:10:53;100542.63;;;9.77;87.04
33554;BME280;19885;42.208;24.952;2022-11-15T04:13:18;100539.25;;;9.81;86.85
33554;BME280;19885;42.208;24.952;2022-11-15T04:15:44;100535.00;;;9.85;86.23
33554;BME280;19885;42.208;24.952;2022-11-15T04:18:09;100494.59;;;9.60;86.52
33554;BME280;19885;42.208;24.952;2022-11-15T04:20:35;100474.41;;;9.49;86.38
33554;BME280;19885;42.208;24.952;2022-11-15T04:23:20;100530.34;;;9.70;86.57
33554;BME280;19885;42.208;24.952;2022-11-15T04:26:08;100530.28;;;9.67;86.54
33554;BME280;19885;42.208;24.952;2022-11-15T04:28:35;100533.81;;;9.69;86.81
33554;BME280;19885;42.208;24.952;2022-11-15T04:31:23;100528.69;;;9.74;86.31
33554;BME280;19885;42.208;24.952;2022-11-15T04:33:49;100517.13;;;9.61;86.45
33554;BME280;19885;42.208;24.952;2022-11-15T04:36:14;100461.06;;;9.33;86.77
33554;BME280;19885;42.208;24.952;2022-11-15T04:38:58;100526.88;;;9.70;86.58
33554;BME280;19885;42.208;24.952;2022-11-15T04:41:24;100527.91;;;9.79;87.03
33554;BME280;19885;42.208;24.952;2022-11-15T04:43:49;100532.28;;;9.80;86.54
33554;BME280;19885;42.208;24.952;2022-11-15T04:46:15;100526.28;;;9.84;86.89
33554;BME280;19885;42.208;24.952;2022-11-15T04:48:40;100518.41;;;9.81;86.67
33554;BME280;19885;42.208;24.952;2022-11-15T04:51:06;100525.41;;;9.82;86.54
33554;BME280;19885;42.208;24.952;2022-11-15T04:53:31;100515.69;;;9.75;86.30
33554;BME280;19885;42.208;24.952;2022-11-15T04:55:56;100516.56;;;9.74;86.10
33554;BME280;19885;42.208;24.952;2022-11-15T04:58:22;100508.69;;;9.71;86.34
33554;BME280;19885;42.208;24.952;2022-11-15T05:00:47;100518.19;;;9.69;85.62
33554;BME280;19885;42.208;24.952;2022-11-15T05:03:13;100516.13;;;9.55;86.06
33554;BME280;19885;42.208;24.952;2022-11-15T05:05:58;100516.81;;;9.46;86.38
33554;BME280;19885;42.208;24.952;2022-11-15T05:08:26;100521.19;;;9.47;85.91
33554;BME280;19885;42.208;24.952;2022-11-15T05:10:51;100519.31;;;9.42;86.51
33554;BME280;19885;42.208;24.952;2022-11-15T05:13:17;100518.28;;;9.33;85.70
33554;BME280;19885;42.208;24.952;2022-11-15T05:15:45;100522.66;;;9.36;86.09
33554;BME280;19885;42.208;24.952;2022-11-15T05:18:10;100523.44;;;9.32;84.83
33554;BME280;19885;42.208;24.952;2022-11-15T05:20:36;100517.69;;;9.08;85.46
33554;BME280;19885;42.208;24.952;2022-11-15T05:23:02;100522.41;;;9.24;85.08
33554;BME280;19885;42.208;24.952;2022-11-15T05:25:27;100518.31;;;9.35;84.89
33554;BME280;19885;42.208;24.952;2022-11-15T05:27:53;100517.59;;;9.42;84.83
33554;BME280;19885;42.208;24.952;2022-11-15T05:30:21;100513.00;;;9.30;84.91
33554;BME280;19885;42.208;24.952;2022-11-15T05:32:47;100521.81;;;9.37;84.33
33554;BME280;19885;42.208;24.952;2022-11-15T05:35:21;100519.81;;;9.24;84.64
33554;BME280;19885;42.208;24.952;2022-11-15T05:37:52;100528.69;;;9.33;84.21
33554;BME280;19885;42.208;24.952;2022-11-15T05:40:17;100527.97;;;9.41;84.96
33554;BME280;19885;42.208;24.952;2022-11-15T05:42:44;100520.56;;;9.20;84.16
33554;BME280;19885;42.208;24.952;2022-11-15T05:45:11;100528.16;;;9.11;84.46
33554;BME280;19885;42.208;24.952;2022-11-15T05:47:37;100531.75;;;9.16;83.89
33554;BME280;19885;42.208;24.952;2022-11-15T05:50:04;100533.00;;;8.96;84.02
33554;BME280;19885;42.208;24.952;2022-11-15T05:52:31;100532.41;;;9.07;84.07
33554;BME280;19885;42.208;24.952;2022-11-15T05:54:59;100515.72;;;8.98;84.30
33554;BME280;19885;42.208;24.952;2022-11-15T05:57:25;100526.22;;;9.02;84.48
33554;BME280;19885;42.208;24.952;2022-11-15T05:59:51;100535.09;;;9.10;84.32
33554;BME280;19885;42.208;24.952;2022-11-15T06:02:17;100511.28;;;8.92;84.32
33554;BME280;19885;42.208;24.952;2022-11-15T06:04:42;100540.34;;;9.13;84.54
33554;BME280;19885;42.208;24.952;2022-11-15T06:07:08;100540.59;;;9.24;84.19
33554;BME280;19885;42.208;24.952;2022-11-15T06:09:35;100543.53;;;9.39;84.92
33554;BME280;19885;42.208;24.952;2022-11-15T06:12:00;100539.31;;;9.43;83.82
33554;BME280;19885;42.208;24.952;2022-11-15T06:14:26;100540.34;;;9.51;83.88
33554;BME280;19885;42.208;24.952;2022-11-15T06:16:52;100547.97;;;9.43;83.79
33554;BME280;19885;42.208;24.952;2022-11-15T06:19:18;100541.81;;;9.40;83.83
33554;BME280;19885;42.208;24.952;2022-11-15T06:21:43;100537.53;;;9.42;82.83
33554;BME280;19885;42.208;24.952;2022-11-15T06:24:10;100536.59;;;9.38;83.72
33554;BME280;19885;42.208;24.952;2022-11-15T06:26:36;100552.53;;;9.53;83.74
33554;BME280;19885;42.208;24.952;2022-11-15T06:29:08;100536.13;;;9.56;83.88
33554;BME280;19885;42.208;24.952;2022-11-15T06:31:34;100538.53;;;9.48;83.11
33554;BME280;19885;42.208;24.952;2022-11-15T06:34:01;100535.06;;;9.48;84.02
33554;BME280;19885;42.208;24.952;2022-11-15T06:36:28;100542.44;;;9.68;83.31
33554;BME280;19885;42.208;24.952;2022-11-15T06:38:54;100545.72;;;9.58;83.09
33554;BME280;19885;42.208;24.952;2022-11-15T06:41:19;100544.34;;;9.75;83.37
33554;BME280;19885;42.208;24.952;2022-11-15T06:43:46;100530.41;;;9.73;82.34
33554;BME280;19885;42.208;24.952;2022-11-15T06:46:12;100553.81;;;9.72;82.91
33554;BME280;19885;42.208;24.952;2022-11-15T06:48:37;100537.56;;;9.83;82.52
33554;BME280;19885;42.208;24.952;2022-11-15T06:51:04;100548.09;;;9.89;82.23
33554;BME280;19885;42.208;24.952;2022-11-15T06:53:30;100537.75;;;9.92;81.12
33554;BME280;19885;42.208;24.952;2022-11-15T06:56:04;100550.19;;;10.08;81.39
33554;BME280;19885;42.208;24.952;2022-11-15T06:58:30;100538.88;;;10.05;81.74
33554;BME280;19885;42.208;24.952;2022-11-15T07:01:04;100529.47;;;10.12;81.37
33554;BME280;19885;42.208;24.952;2022-11-15T07:03:30;100539.41;;;10.31;81.47
33554;BME280;19885;42.208;24.952;2022-11-15T07:05:57;100542.00;;;10.31;80.64
33554;BME280;19885;42.208;24.952;2022-11-15T07:08:23;100543.00;;;10.39;80.77
33554;BME280;19885;42.208;24.952;2022-11-15T07:10:49;100537.81;;;10.39;80.56
33554;BME280;19885;42.208;24.952;2022-11-15T07:13:15;100541.63;;;10.59;79.71
33554;BME280;19885;42.208;24.952;2022-11-15T07:15:41;100535.75;;;10.69;78.97
33554;BME280;19885;42.208;24.952;2022-11-15T07:18:06;100526.88;;;10.59;79.41
33554;BME280;19885;42.208;24.952;2022-11-15T07:20:32;100534.19;;;10.82;78.66
33554;BME280;19885;42.208;24.952;2022-11-15T07:23:04;100517.47;;;10.67;78.68
33554;BME280;19885;42.208;24.952;2022-11-15T07:25:30;100488.75;;;10.66;78.56
33554;BME280;19885;42.208;24.952;2022-11-15T07:27:59;100501.41;;;10.94;77.45
33554;BME280;19885;42.208;24.952;2022-11-15T07:30:25;100499.47;;;10.84;78.47
33554;BME280;19885;42.208;24.952;2022-11-15T07:32:56;100514.47;;;10.97;78.23
33554;BME280;19885;42.208;24.952;2022-11-15T07:35:22;100519.66;;;10.94;76.86
33554;BME280;19885;42.208;24.952;2022-11-15T07:37:58;100518.16;;;11.10;75.62
33554;BME280;19885;42.208;24.952;2022-11-15T07:40:29;100478.06;;;11.05;76.30
33554;BME280;19885;42.208;24.952;2022-11-15T07:43:02;100516.69;;;11.28;76.26
33554;BME280;19885;42.208;24.952;2022-11-15T07:45:32;100514.47;;;11.59;75.04
33554;BME280;19885;42.208;24.952;2022-11-15T07:47:59;100513.78;;;11.67;73.23
33554;BME280;19885;42.208;24.952;2022-11-15T07:50:26;100518.28;;;11.80;74.73
33554;BME280;19885;42.208;24.952;2022-11-15T07:52:59;100510.56;;;11.89;72.42
33554;BME280;19885;42.208;24.952;2022-11-15T07:55:26;100439.31;;;11.32;72.60
33554;BME280;19885;42.208;24.952;2022-11-15T07:57:52;100516.88;;;12.08;71.77
33554;BME280;19885;42.208;24.952;2022-11-15T08:00:19;100514.38;;;12.20;71.78
33554;BME280;19885;42.208;24.952;2022-11-15T08:02:45;100502.16;;;12.17;71.45
33554;BME280;19885;42.208;24.952;2022-11-15T08:05:10;100510.31;;;12.46;70.04
33554;BME280;19885;42.208;24.952;2022-11-15T08:07:35;100477.88;;;12.26;68.60
33554;BME280;19885;42.208;24.952;2022-11-15T08:10:03;100457.72;;;12.14;69.74
33554;BME280;19885;42.208;24.952;2022-11-15T08:12:31;100505.06;;;12.45;69.74
33554;BME280;19885;42.208;24.952;2022-11-15T08:14:56;100485.88;;;12.44;69.89
33554;BME280;19885;42.208;24.952;2022-11-15T08:17:24;100494.78;;;12.63;69.64
33554;BME280;19885;42.208;24.952;2022-11-15T08:19:49;100504.44;;;12.74;69.59
33554;BME280;19885;42.208;24.952;2022-11-15T08:22:15;100504.56;;;12.89;68.98
33554;BME280;19885;42.208;24.952;2022-11-15T08:24:40;100492.44;;;13.01;68.97
33554;BME280;19885;42.208;24.952;2022-11-15T08:27:06;100503.88;;;13.12;66.55
33554;BME280;19885;42.208;24.952;2022-11-15T08:29:43;100504.91;;;13.36;67.03
33554;BME280;19885;42.208;24.952;2022-11-15T08:32:11;100496.38;;;13.74;67.01
33554;BME280;19885;42.208;24.952;2022-11-15T08:34:39;100495.53;;;13.82;66.96
33554;BME280;19885;42.208;24.952;2022-11-15T08:37:05;100499.06;;;13.93;64.79
33554;BME280;19885;42.208;24.952;2022-11-15T08:39:31;100494.72;;;14.09;65.34
33554;BME280;19885;42.208;24.952;2022-11-15T08:41:57;100483.44;;;14.36;63.67
33554;BME280;19885;42.208;24.952;2022-11-15T08:44:22;100479.13;;;14.69;63.25
33554;BME280;19885;42.208;24.952;2022-11-15T08:46:49;100482.63;;;14.85;62.29
33554;BME280;19885;42.208;24.952;2022-11-15T08:49:15;100481.69;;;15.28;62.32
33554;BME280;19885;42.208;24.952;2022-11-15T08:51:41;100483.47;;;15.02;61.55
33554;BME280;19885;42.208;24.952;2022-11-15T08:54:06;100480.00;;;14.49;61.96
33554;BME280;19885;42.208;24.952;2022-11-15T08:56:32;100481.72;;;14.89;62.32
33554;BME280;19885;42.208;24.952;2022-11-15T08:58:57;100459.88;;;14.94;61.11
33554;BME280;19885;42.208;24.952;2022-11-15T09:01:23;100465.13;;;14.99;61.78
33554;BME280;19885;42.208;24.952;2022-11-15T09:03:48;100465.94;;;15.13;60.67
33554;BME280;19885;42.208;24.952;2022-11-15T09:06:14;100455.44;;;15.16;60.25
33554;BME280;19885;42.208;24.952;2022-11-15T09:08:40;100456.28;;;15.24;59.98
33554;BME280;19885;42.208;24.952;2022-11-15T09:11:07;100446.75;;;14.82;61.92
33554;BME280;19885;42.208;24.952;2022-11-15T09:13:33;100451.06;;;15.06;62.40
33554;BME280;19885;42.208;24.952;2022-11-15T09:16:00;100440.53;;;15.15;60.94
33554;BME280;19885;42.208;24.952;2022-11-15T09:18:25;100430.03;;;15.27;61.73
33554;BME280;19885;42.208;24.952;2022-11-15T09:20:51;100433.59;;;15.08;61.43
33554;BME280;19885;42.208;24.952;2022-11-15T09:23:16;100364.47;;;14.97;60.64
33554;BME280;19885;42.208;24.952;2022-11-15T09:25:42;100421.25;;;15.46;61.60
33554;BME280;19885;42.208;24.952;2022-11-15T09:28:08;100407.22;;;15.46;59.12
33554;BME280;19885;42.208;24.952;2022-11-15T09:30:34;100396.59;;;15.68;59.92
33554;BME280;19885;42.208;24.952;2022-11-15T09:33:07;100399.94;;;15.95;60.11
33554;BME280;19885;42.208;24.952;2022-11-15T09:35:33;100399.31;;;15.53;58.26
33554;BME280;19885;42.208;24.952;2022-11-15T09:37:58;100313.78;;;14.89;60.21
33554;BME280;19885;42.208;24.952;2022-11-15T09:40:24;100379.19;;;15.45;60.52
33554;BME280;19885;42.208;24.952;2022-11-15T09:43:25;100398.16;;;16.00;61.62
33554;BME280;19885;42.208;24.952;2022-11-15T09:46:22;100392.50;;;16.56;59.00
33554;BME280;19885;42.208;24.952;2022-11-15T09:48:56;100386.81;;;16.96;59.59
33554;BME280;19885;42.208;24.952;2022-11-15T09:51:33;100381.78;;;17.53;55.14
33554;BME280;19885;42.208;24.952;2022-11-15T09:54:09;100371.56;;;17.91;53.79
33554;BME280;19885;42.208;24.952;2022-11-15T09:56:41;100351.78;;;18.18;52.90
33554;BME280;19885;42.208;24.952;2022-11-15T10:04:36;100353.50;;;18.72;52.23
33554;BME280;19885;42.208;24.952;2022-11-15T10:07:21;100357.22;;;18.61;51.14
33554;BME280;19885;42.208;24.952;2022-11-15T10:09:55;100352.47;;;18.30;51.88
33554;BME280;19885;42.208;24.952;2022-11-15T10:12:25;100340.63;;;18.56;54.07
33554;BME280;19885;42.208;24.952;2022-11-15T10:15:00;100345.34;;;18.84;50.49
33554;BME280;19885;42.208;24.952;2022-11-15T10:17:31;100347.34;;;18.73;50.68
33554;BME280;19885;42.208;24.952;2022-11-15T10:20:29;100335.44;;;18.51;51.42
33554;BME280;19885;42.208;24.952;2022-11-15T10:23:18;100333.25;;;18.22;51.49
33554;BME280;19885;42.208;24.952;2022-11-15T10:25:44;100332.03;;;17.88;51.95
33554;BME280;19885;42.208;24.952;2022-11-15T10:30:53;100320.34;;;17.46;55.06
33554;BME280;19885;42.208;24.952;2022-11-15T10:33:30;100316.16;;;17.30;55.33
33554;BME280;19885;42.208;24.952;2022-11-15T10:41:18;100321.41;;;16.60;57.03
33554;BME280;19885;42.208;24.952;2022-11-15T10:43:45;100309.19;;;16.47;57.87
33554;BME280;19885;42.208;24.952;2022-11-15T10:46:20;100305.84;;;16.33;58.87
33554;BME280;19885;42.208;24.952;2022-11-15T10:48:46;100317.34;;;16.20;57.94
33554;BME280;19885;42.208;24.952;2022-11-15T10:51:25;100295.59;;;16.03;59.27
33554;BME280;19885;42.208;24.952;2022-11-15T10:53:55;100297.38;;;16.01;59.31
33554;BME280;19885;42.208;24.952;2022-11-15T10:56:22;100300.03;;;15.98;60.11
33554;BME280;19885;42.208;24.952;2022-11-15T10:58:56;100292.06;;;16.04;61.07
33554;BME280;19885;42.208;24.952;2022-11-15T11:01:27;100285.97;;;16.00;59.56
33554;BME280;19885;42.208;24.952;2022-11-15T11:06:27;100285.88;;;16.14;59.91
33554;BME280;19885;42.208;24.952;2022-11-15T11:08:58;100284.03;;;16.20;61.53
33554;BME280;19885;42.208;24.952;2022-11-15T11:11:48;100288.38;;;16.26;57.85
33554;BME280;19885;42.208;24.952;2022-11-15T11:14:31;100284.84;;;16.30;57.54
33554;BME280;19885;42.208;24.952;2022-11-15T11:17:03;100267.47;;;16.12;57.27
33554;BME280;19885;42.208;24.952;2022-11-15T11:19:39;100272.63;;;16.23;58.98
33554;BME280;19885;42.208;24.952;2022-11-15T11:22:30;100271.78;;;16.18;57.03
33554;BME280;19885;42.208;24.952;2022-11-15T11:30:23;100255.13;;;16.19;58.04
33554;BME280;19885;42.208;24.952;2022-11-15T11:44:27;100227.13;;;16.15;60.15
33554;BME280;19885;42.208;24.952;2022-11-15T11:49:45;100226.88;;;16.36;57.94
33554;BME280;19885;42.208;24.952;2022-11-15T11:52:57;100214.59;;;16.38;56.66
33554;BME280;19885;42.208;24.952;2022-11-15T11:55:31;100206.84;;;16.26;57.05
33554;BME280;19885;42.208;24.952;2022-11-15T11:58:17;100204.25;;;16.23;57.76
33554;BME280;19885;42.208;24.952;2022-11-15T12:00:51;100208.13;;;15.87;57.92
33554;BME280;19885;42.208;24.952;2022-11-15T12:03:26;100195.78;;;15.94;58.11
33554;BME280;19885;42.208;24.952;2022-11-15T12:06:00;100200.59;;;16.36;59.01
33554;BME280;19885;42.208;24.952;2022-11-15T12:08:36;100191.59;;;16.57;56.74
33554;BME280;19885;42.208;24.952;2022-11-15T12:11:36;100176.75;;;16.50;57.10
33554;BME280;19885;42.208;24.952;2022-11-15T12:14:05;100181.09;;;16.58;58.07
33554;BME280;19885;42.208;24.952;2022-11-15T12:16:34;100180.53;;;16.24;57.32
33554;BME280;19885;42.208;24.952;2022-11-15T12:19:02;100179.22;;;15.84;57.91
33554;BME280;19885;42.208;24.952;2022-11-15T12:21:44;100135.06;;;15.22;58.02
33554;BME280;19885;42.208;24.952;2022-11-15T12:24:18;100127.81;;;15.57;59.92
33554;BME280;19885;42.208;24.952;2022-11-15T12:27:01;100173.41;;;15.47;59.24
33554;BME280;19885;42.208;24.952;2022-11-15T12:29:41;100169.06;;;15.46;60.47
33554;BME280;19885;42.208;24.952;2022-11-15T12:34:49;100164.16;;;16.03;59.33
33554;BME280;19885;42.208;24.952;2022-11-15T12:40:26;100162.13;;;16.24;57.03
33554;BME280;19885;42.208;24.952;2022-11-15T12:45:44;100161.41;;;16.13;57.63
33554;BME280;19885;42.208;24.952;2022-11-15T13:01:09;100140.63;;;14.83;62.06
33554;BME280;19885;42.208;24.952;2022-11-15T13:03:35;100138.97;;;14.67;62.60
33554;BME280;19885;42.208;24.952;2022-11-15T13:06:03;100142.31;;;14.90;62.11
33554;BME280;19885;42.208;24.952;2022-11-15T13:08:45;100139.78;;;14.75;62.67
33554;BME280;19885;42.208;24.952;2022-11-15T13:11:44;100133.63;;;14.77;62.12
33554;BME280;19885;42.208;24.952;2022-11-15T13:17:03;100124.72;;;15.04;61.39
33554;BME280;19885;42.208;24.952;2022-11-15T13:19:36;100096.81;;;14.91;62.14
33554;BME280;19885;42.208;24.952;2022-11-15T13:22:06;100123.66;;;15.31;60.75
33554;BME280;19885;42.208;24.952;2022-11-15T13:24:52;100121.81;;;15.36;59.91
33554;BME280;19885;42.208;24.952;2022-11-15T13:27:19;100120.00;;;15.42;59.84
33554;BME280;19885;42.208;24.952;2022-11-15T13:29:45;100118.31;;;15.40;60.45
33554;BME280;19885;42.208;24.952;2022-11-15T13:32:15;100113.00;;;15.50;60.69
33554;BME280;19885;42.208;24.952;2022-11-15T13:34:45;100044.00;;;15.27;59.62
33554;BME280;19885;42.208;24.952;2022-11-15T13:39:48;100104.34;;;15.32;60.94
33554;BME280;19885;42.208;24.952;2022-11-15T13:42:18;100093.69;;;15.53;59.69
33554;BME280;19885;42.208;24.952;2022-11-15T13:44:58;100098.06;;;15.55;59.24
33554;BME280;19885;42.208;24.952;2022-11-15T13:47:26;100099.91;;;15.41;60.41
33554;BME280;19885;42.208;24.952;2022-11-15T13:49:52;100096.38;;;15.48;59.72
33554;BME280;19885;42.208;24.952;2022-11-15T13:52:19;100091.28;;;15.27;60.39
33554;BME280;19885;42.208;24.952;2022-11-15T13:54:56;100041.63;;;15.00;60.75
33554;BME280;19885;42.208;24.952;2022-11-15T13:58:09;100093.03;;;15.25;60.91
33554;BME280;19885;42.208;24.952;2022-11-15T14:00:39;100090.03;;;14.63;61.43
33554;BME280;19885;42.208;24.952;2022-11-15T14:03:23;100086.63;;;14.43;62.83
33554;BME280;19885;42.208;24.952;2022-11-15T14:06:04;100092.72;;;14.51;63.12
33554;BME280;19885;42.208;24.952;2022-11-15T14:08:31;100090.19;;;14.17;63.35
33554;BME280;19885;42.208;24.952;2022-11-15T14:11:16;100085.84;;;14.13;64.16
33554;BME280;19885;42.208;24.952;2022-11-15T14:16:34;100082.19;;;14.58;63.20
33554;BME280;19885;42.208;24.952;2022-11-15T14:19:00;100084.78;;;14.60;62.78
33554;BME280;19885;42.208;24.952;2022-11-15T14:21:26;100076.97;;;14.48;63.51
33554;BME280;19885;42.208;24.952;2022-11-15T14:23:51;100077.06;;;14.29;63.60
33554;BME280;19885;42.208;24.952;2022-11-15T14:26:27;100029.06;;;14.15;63.51
33554;BME280;19885;42.208;24.952;2022-11-15T14:28:53;100034.28;;;14.21;62.98
33554;BME280;19885;42.208;24.952;2022-11-15T14:31:19;100022.94;;;14.13;63.39
33554;BME280;19885;42.208;24.952;2022-11-15T14:33:44;100078.06;;;14.01;64.31